Flight Track Log - Related Links

Times and Time Zones

All times are in EDT time to prevent confusion due to time zone crossing. See the EGF3275 flight status page for this flight to view local times or setup timezone preferences in your user account.

Time Position Orientation Groundspeed Altitude Reporting Facility
EDT Latitude Longitude Course Direction KTS MPH feet Rate Location/Type
Thu 11:08:15 AM 32.8724 -97.0333 239° Southwest  Level FlightAware Approximate
Thu 11:09:03 AM 32.8636 -97.0508 182° South 163 188 2,300  Level FAA TRACON SMA TRACON (SMA)
Thu 11:09:43 AM 32.8275 -97.0522 183° South 190 219 3,900 2,100 Climbing FAA TRACON SMA TRACON (SMA)
Thu 11:10:23 AM 32.7914 -97.0542 193° South 215 247 5,100 1,650 Climbing FAA TRACON SMA TRACON (SMA)
Thu 11:11:03 AM 32.7442 -97.0672 192° South 256 295 6,100 2,051 Climbing FAA TRACON SMA TRACON (SMA)
Thu 11:11:42 AM 32.6933 -97.0806 191° South 269 310 7,800 2,250 Climbing FAA TRACON SMA TRACON (SMA)
Thu 11:12:23 AM 32.6481 -97.0911 192° South 270 311 9,100 2,175 Climbing FAA TRACON SMA TRACON (SMA)
Thu 11:13:02 AM 32.5956 -97.1044 192° South 278 320 10,700 1,875 Climbing FAA TRACON SMA TRACON (SMA)
Thu 11:13:43 AM 32.5400 -97.1183 192° South 297 342 11,600 1,317 Climbing FAA TRACON SMA TRACON (SMA)
Thu 11:14:24 AM 32.4875 -97.1317 192° South 314 361 12,500 1,443 Climbing FAA TRACON SMA TRACON (SMA)
Thu 11:15:02 AM 32.4261 -97.1475 192° South 327 376 13,500 1,692 Climbing FAA TRACON SMA TRACON (SMA)
Thu 11:15:42 AM 32.3703 -97.1614 193° South 333 383 14,700 1,756 Climbing FAA TRACON SMA TRACON (SMA)
Thu 11:16:24 AM 32.3069 -97.1783 189° South 337 388 15,900 1,829 Climbing FAA TRACON SMA TRACON (SMA)
Thu 11:17:04 AM 32.2422 -97.1900 186° South 340 391 17,200 1,800 Climbing FAA TRACON SMA TRACON (SMA)
Thu 11:17:44 AM 32.1761 -97.1983 187° South 344 396 18,300 1,650 Climbing FAA TRACON SMA TRACON (SMA)
Thu 11:18:24 AM 32.1167 -97.2064 194° South 349 402 19,400 1,650 Climbing FAA TRACON SMA TRACON (SMA)
Thu 11:19:04 AM 32.0514 -97.2258 197° South 349 402 20,500 1,725 Climbing FAA TRACON SMA TRACON (SMA)
Thu 11:19:44 AM 31.9869 -97.2497 198° South 351 404 21,700 1,500 Climbing FAA TRACON SMA TRACON (SMA)
Thu 11:20:24 AM 31.9433 -97.2667 199° South 354 407 22,500 1,422 Climbing FAA TRACON SMA TRACON (SMA)
Thu 11:21:59 AM 31.7875 -97.3303 198° South 363 418 24,900 1,457 Climbing Fort Worth Center
Thu 11:23:54 AM 31.5883 -97.4053 198° South 369 425 27,600 1,406 Climbing Houston Center
Thu 11:24:54 AM 31.4908 -97.4433 197° South 374 430 29,000 1,400 Climbing Houston Center
Thu 11:25:54 AM 31.3892 -97.4789 197° South 379 436 30,400 1,350 Climbing Houston Center
Thu 11:26:54 AM 31.2875 -97.5164 198° South 379 436 31,700 1,300 Climbing Houston Center
Thu 11:27:54 AM 31.1858 -97.5542 198° South 379 436 33,000 1,250 Climbing Houston Center
Thu 11:28:54 AM 31.0819 -97.5942 197° South 390 449 34,200 1,250 Climbing Houston Center
Thu 11:29:54 AM 30.9781 -97.6314 198° South 390 449 35,500 900 Climbing Houston Center
Thu 11:30:54 AM 30.8742 -97.6711 197° South 390 449 36,000 250 Climbing Houston Center
Thu 11:31:54 AM 30.7808 -97.7042 198° South 390 449 36,000  Level Houston Center
Thu 11:32:54 AM 30.6792 -97.7417 197° South 390 449 36,000  Level Houston Center
Thu 11:33:54 AM 30.5753 -97.7789 212° Southwest 390 449 36,000  Level Houston Center
Thu 11:34:54 AM 30.4869 -97.8433 211° Southwest 377 434 36,000  Level Houston Center
Thu 11:35:54 AM 30.3964 -97.9075 214° Southwest 384 442 36,000  Level Houston Center
Thu 11:36:54 AM 30.3119 -97.9744 213° Southwest 379 436 36,000  Level Houston Center
Thu 11:37:54 AM 30.2167 -98.0453 212° Southwest 379 436 36,000  Level Houston Center
Thu 11:38:54 AM 30.1369 -98.1028 212° Southwest 379 436 36,000  Level Houston Center
Thu 11:39:54 AM 30.0417 -98.1711 214° Southwest 379 436 36,000  Level Houston Center
Thu 11:40:54 AM 29.9639 -98.2308 212° Southwest 379 436 36,000  Level Houston Center
Thu 11:41:54 AM 29.8686 -98.2989 213° Southwest 379 436 36,000  Level Houston Center
Thu 11:42:54 AM 29.7908 -98.3561 214° Southwest 379 436 36,000  Level Houston Center
Thu 11:43:54 AM 29.6997 -98.4267 208° Southwest 374 430 36,000  Level Houston Center
Thu 11:44:54 AM 29.6136 -98.4783 201° Southwest 379 436 36,000  Level Houston Center
Thu 11:45:54 AM 29.5156 -98.5219 200° South 379 436 36,000  Level Houston Center
Thu 11:46:54 AM 29.4047 -98.5694 202° Southwest 392 451 36,000  Level Houston Center
Thu 11:47:54 AM 29.3086 -98.6131 201° Southwest 380 437 36,000  Level Houston Center
Thu 11:48:54 AM 29.2103 -98.6564 202° Southwest 380 437 36,000  Level Houston Center
Thu 11:49:54 AM 29.1164 -98.7000 201° Southwest 380 437 36,000  Level Houston Center
Thu 11:50:54 AM 29.0181 -98.7433 201° Southwest 380 437 36,000 150 Level Houston Center
Thu 11:51:54 AM 28.9178 -98.7864 203° Southwest 380 437 36,300 500 Climbing Houston Center
Thu 11:52:54 AM 28.8217 -98.8319 200° South 380 437 37,000 350 Climbing Houston Center
Thu 11:53:54 AM 28.7256 -98.8728 199° South 380 437 37,000  Level Houston Center
Thu 11:54:54 AM 28.6361 -98.9069 202° Southwest 380 437 37,000  Level Houston Center
Thu 11:55:54 AM 28.5356 -98.9522 202° Southwest 380 437 37,000  Level Houston Center
Thu 11:56:54 AM 28.4372 -98.9975 201° Southwest 380 437 37,000  Level Houston Center
Thu 11:57:54 AM 28.3392 -99.0403 201° Southwest 380 437 37,000  Level Houston Center
Thu 11:58:54 AM 28.2408 -99.0828 202° Southwest 380 437 37,000  Level Houston Center
Thu 11:59:54 AM 28.1425 -99.1278 202° Southwest 380 437 37,000  Level Houston Center
Thu 12:00:54 PM 28.0439 -99.1728 210° Southwest 380 437 37,000  Level Houston Center
Thu 12:01:54 PM 27.9489 -99.2342 210° Southwest 387 445 37,000  Level Houston Center
Thu 12:02:54 PM 27.8578 -99.2936 210° Southwest 387 445 37,000  Level Houston Center
Thu 12:03:54 PM 27.7647 -99.3550 210° Southwest 387 445 37,000  Level Houston Center
Thu 12:04:54 PM 27.6717 -99.4164 209° Southwest 392 451 37,000  Level Houston Center
Thu 12:05:54 PM 27.5786 -99.4753 212° Southwest 392 451 37,000 -50 Level Houston Center
Thu 12:06:54 PM 27.4872 -99.5389 197° South 392 451 36,900 -100 Descending Houston Center
Thu 12:14:15 PM 26.7762 -99.7756 195° South  Level FlightAware Approximate
Thu 12:15:15 PM 26.6788 -99.8047 195° South  Level FlightAware Approximate
Thu 12:16:15 PM 26.5813 -99.8338 195° South  Level FlightAware Approximate
Thu 12:17:15 PM 26.4838 -99.8629 195° South  Level FlightAware Approximate
Thu 12:18:15 PM 26.3863 -99.8919 195° South  Level FlightAware Approximate
Thu 12:19:15 PM 26.2888 -99.9209 195° South  Level FlightAware Approximate
Thu 12:20:15 PM 26.1912 -99.9498 195° South  Level FlightAware Approximate
Thu 12:21:15 PM 26.0937 -99.9786 195° South  Level FlightAware Approximate
Thu 12:22:15 PM 25.9962 -100.0074 195° South  Level FlightAware Approximate
Thu 12:23:15 PM 25.8987 -100.0362 195° South  Level FlightAware Approximate
Thu 12:24:15 PM 25.8011 -100.0649 220° Southwest  Level FlightAware Approximate
Thu 12:25:15 PM 25.7237 -100.1366 193° South  Level FlightAware Approximate
Thu 12:26:15 PM 25.6255 -100.1624 193° South  Level FlightAware Approximate
Thu 12:27:15 PM 25.5273 -100.1880 193° South  Level FlightAware Approximate
Thu 12:28:15 PM 25.4291 -100.2137 193° South  Level FlightAware Approximate
Thu 12:29:15 PM 25.3309 -100.2393 194° South  Level FlightAware Approximate
Thu 12:30:15 PM 25.2328 -100.2655 194° South  Level FlightAware Approximate
Thu 12:31:15 PM 25.1348 -100.2917 194° South  Level FlightAware Approximate
Thu 12:32:15 PM 25.0367 -100.3178 195° South  Level FlightAware Approximate
Thu 12:33:15 PM 24.9391 -100.3464 195° South  Level FlightAware Approximate
Thu 12:34:15 PM 24.8416 -100.3748 195° South  Level FlightAware Approximate
Thu 12:35:15 PM 24.7440 -100.4033 195° South  Level FlightAware Approximate
Thu 12:36:15 PM 24.6465 -100.4316 195° South  Level FlightAware Approximate
Thu 12:37:15 PM 24.5489 -100.4600 195° South  Level FlightAware Approximate
Thu 12:38:15 PM 24.4514 -100.4883 195° South  Level FlightAware Approximate
Thu 12:39:15 PM 24.3538 -100.5165 195° South  Level FlightAware Approximate
Thu 12:40:15 PM 24.2562 -100.5447 195° South  Level FlightAware Approximate
Thu 12:41:15 PM 24.1587 -100.5729 195° South  Level FlightAware Approximate
Thu 12:42:15 PM 24.0611 -100.6010 195° South  Level FlightAware Approximate
Thu 12:43:15 PM 23.9635 -100.6291 195° South  Level FlightAware Approximate
Thu 12:44:15 PM 23.8659 -100.6572 195° South  Level FlightAware Approximate
Thu 12:45:15 PM 23.7683 -100.6851 195° South  Level FlightAware Approximate
Thu 12:46:15 PM 23.6707 -100.7131 195° South  Level FlightAware Approximate
Thu 12:47:15 PM 23.5731 -100.7410 195° South  Level FlightAware Approximate
Thu 12:48:15 PM 23.4755 -100.7689 195° South  Level FlightAware Approximate
Thu 12:49:15 PM 23.3779 -100.7967 195° South  Level FlightAware Approximate
Thu 12:50:15 PM 23.2802 -100.8245 195° South  Level FlightAware Approximate
Thu 12:51:15 PM 23.1826 -100.8522 195° South  Level FlightAware Approximate
Thu 12:52:15 PM 23.0850 -100.8800 200° South  Level FlightAware Approximate
Thu 12:53:15 PM 22.9942 -100.9167 194° South  Level FlightAware Approximate
Thu 12:54:15 PM 22.8964 -100.9438 165° South  Level FlightAware Approximate
Thu 12:55:15 PM 22.8003 -100.9167 180° South  Level FlightAware Approximate
Thu 12:56:15 PM 22.6994 -100.9167 197° South  Level FlightAware Approximate
Thu 12:57:15 PM 22.6027 -100.9480 197° South  Level FlightAware Approximate
Thu 12:58:15 PM 22.5060 -100.9793 143° Southeast  Level FlightAware Approximate
Thu 12:59:15 PM 22.4297 -100.9167 200° South  Level FlightAware Approximate
Thu 01:00:15 PM 22.3346 -100.9532 162° South  Level FlightAware Approximate
Thu 01:01:15 PM 22.2411 -100.9211 205° Southwest  Level FlightAware Approximate
Thu 01:02:15 PM 22.1495 -100.9669 202° Southwest  Level FlightAware Approximate
Thu 01:03:15 PM 22.0559 -101.0073 202° Southwest  Level FlightAware Approximate
Thu 01:04:15 PM 21.9622 -101.0478 206° Southwest  Level FlightAware Approximate
Thu 01:05:15 PM 21.8714 -101.0948 201° Southwest  Level FlightAware Approximate
Thu 01:06:15 PM 21.7774 -101.1344 199° South  Level FlightAware Approximate
Thu 01:07:15 PM 21.6823 -101.1704 202° Southwest  Level FlightAware Approximate
Thu 01:08:15 PM 21.5884 -101.2104 202° Southwest  Level FlightAware Approximate

Login

Don't have an account? Register now (free) for customized features, flight alerts, and more!